sensor_id;sensor_type;location;lat;lon;timestamp;pressure;altitude;pressure_sealevel;temperature;humidity
29385;BME280;16367;48.736;9.218;2023-05-23T00:01:48;-23708.22;;;17.13;100.00
29385;BME280;16367;48.736;9.218;2023-05-23T00:03:55;-23708.69;;;17.14;100.00
29385;BME280;16367;48.736;9.218;2023-05-23T00:06:00;-23706.63;;;17.08;100.00
29385;BME280;16367;48.736;9.218;2023-05-23T00:08:02;-23708.84;;;17.15;100.00
29385;BME280;16367;48.736;9.218;2023-05-23T00:10:06;-23708.38;;;17.13;100.00
29385;BME280;16367;48.736;9.218;2023-05-23T00:12:09;-23705.84;;;17.05;100.00
29385;BME280;16367;48.736;9.218;2023-05-23T00:14:13;-23708.53;;;17.14;100.00
29385;BME280;16367;48.736;9.218;2023-05-23T00:16:18;-23703.16;;;16.97;100.00
29385;BME280;16367;48.736;9.218;2023-05-23T00:18:21;-23706.31;;;17.07;100.00
29385;BME280;16367;48.736;9.218;2023-05-23T00:20:25;-23707.72;;;17.11;100.00
29385;BME280;16367;48.736;9.218;2023-05-23T00:22:27;-23709.00;;;17.15;100.00
29385;BME280;16367;48.736;9.218;2023-05-23T00:24:30;-23705.06;;;17.03;100.00
29385;BME280;16367;48.736;9.218;2023-05-23T00:26:33;-23700.81;;;16.89;100.00
29385;BME280;16367;48.736;9.218;2023-05-23T00:28:36;-23703.97;;;16.99;100.00
29385;BME280;16367;48.736;9.218;2023-05-23T00:30:39;-23699.25;;;16.84;100.00
29385;BME280;16367;48.736;9.218;2023-05-23T00:32:44;-23703.00;;;16.96;100.00
29385;BME280;16367;48.736;9.218;2023-05-23T00:34:46;-23705.53;;;17.04;100.00
29385;BME280;16367;48.736;9.218;2023-05-23T00:36:49;-23707.09;;;17.09;100.00
29385;BME280;16367;48.736;9.218;2023-05-23T00:38:52;-23704.59;;;17.01;100.00
29385;BME280;16367;48.736;9.218;2023-05-23T00:40:56;-23708.38;;;17.13;100.00
29385;BME280;16367;48.736;9.218;2023-05-23T00:42:59;-23704.44;;;17.01;100.00
29385;BME280;16367;48.736;9.218;2023-05-23T00:45:02;-23699.25;;;16.84;100.00
29385;BME280;16367;48.736;9.218;2023-05-23T00:47:06;-23703.16;;;16.97;100.00
29385;BME280;16367;48.736;9.218;2023-05-23T00:49:11;-23706.00;;;17.06;100.00
29385;BME280;16367;48.736;9.218;2023-05-23T00:51:14;-23701.59;;;16.92;100.00
29385;BME280;16367;48.736;9.218;2023-05-23T00:53:17;-23708.84;;;17.15;100.00
29385;BME280;16367;48.736;9.218;2023-05-23T00:55:20;-23704.44;;;17.01;100.00
29385;BME280;16367;48.736;9.218;2023-05-23T00:57:23;-23705.38;;;17.04;100.00
29385;BME280;16367;48.736;9.218;2023-05-23T00:59:26;-23704.75;;;17.02;100.00
29385;BME280;16367;48.736;9.218;2023-05-23T01:01:29;-23704.28;;;17.00;100.00
29385;BME280;16367;48.736;9.218;2023-05-23T01:03:32;-23706.16;;;17.06;100.00
29385;BME280;16367;48.736;9.218;2023-05-23T01:05:36;-23707.25;;;17.10;100.00
29385;BME280;16367;48.736;9.218;2023-05-23T01:07:42;-23705.22;;;17.03;100.00
29385;BME280;16367;48.736;9.218;2023-05-23T01:09:45;-23708.22;;;17.13;100.00
29385;BME280;16367;48.736;9.218;2023-05-23T01:11:53;-23708.69;;;17.14;100.00
29385;BME280;16367;48.736;9.218;2023-05-23T01:14:02;-23709.00;;;17.15;100.00
29385;BME280;16367;48.736;9.218;2023-05-23T01:16:10;-23709.31;;;17.17;100.00
29385;BME280;16367;48.736;9.218;2023-05-23T01:18:16;-23705.38;;;17.04;100.00
29385;BME280;16367;48.736;9.218;2023-05-23T01:20:21;-23701.91;;;16.93;100.00
29385;BME280;16367;48.736;9.218;2023-05-23T01:25:23;-23706.31;;;17.07;100.00
29385;BME280;16367;48.736;9.218;2023-05-23T01:27:41;-23698.91;;;16.83;100.00
29385;BME280;16367;48.736;9.218;2023-05-23T01:29:49;-23699.25;;;16.84;100.00
29385;BME280;16367;48.736;9.218;2023-05-23T01:31:56;-23695.78;;;16.73;100.00
29385;BME280;16367;48.736;9.218;2023-05-23T01:34:01;-23692.94;;;16.64;100.00
29385;BME280;16367;48.736;9.218;2023-05-23T01:36:04;-23697.50;;;16.79;100.00
29385;BME280;16367;48.736;9.218;2023-05-23T01:38:07;-23699.88;;;16.86;100.00
29385;BME280;16367;48.736;9.218;2023-05-23T01:40:10;-23698.59;;;16.82;100.00
29385;BME280;16367;48.736;9.218;2023-05-23T01:42:13;-23700.66;;;16.89;100.00
29385;BME280;16367;48.736;9.218;2023-05-23T01:44:18;-23696.88;;;16.77;100.00
29385;BME280;16367;48.736;9.218;2023-05-23T01:46:22;-23695.16;;;16.71;100.00
29385;BME280;16367;48.736;9.218;2023-05-23T01:48:27;-23697.66;;;16.79;100.00
29385;BME280;16367;48.736;9.218;2023-05-23T01:50:31;-23696.41;;;16.75;100.00
29385;BME280;16367;48.736;9.218;2023-05-23T01:52:34;-23697.03;;;16.77;100.00
29385;BME280;16367;48.736;9.218;2023-05-23T01:54:37;-23696.56;;;16.76;100.00
29385;BME280;16367;48.736;9.218;2023-05-23T01:56:44;-23696.09;;;16.74;100.00
29385;BME280;16367;48.736;9.218;2023-05-23T01:58:47;-23694.34;;;16.69;100.00
29385;BME280;16367;48.736;9.218;2023-05-23T02:00:51;-23696.41;;;16.75;100.00
29385;BME280;16367;48.736;9.218;2023-05-23T02:02:54;-23692.94;;;16.64;100.00
29385;BME280;16367;48.736;9.218;2023-05-23T02:04:57;-23689.31;;;16.53;100.00
29385;BME280;16367;48.736;9.218;2023-05-23T02:07:00;-23688.84;;;16.51;100.00
29385;BME280;16367;48.736;9.218;2023-05-23T02:09:03;-23689.47;;;16.53;100.00
29385;BME280;16367;48.736;9.218;2023-05-23T02:11:05;-23689.00;;;16.52;100.00
29385;BME280;16367;48.736;9.218;2023-05-23T02:13:09;-23691.53;;;16.60;100.00
29385;BME280;16367;48.736;9.218;2023-05-23T02:15:12;-23689.47;;;16.53;100.00
29385;BME280;16367;48.736;9.218;2023-05-23T02:17:16;-23684.41;;;16.37;100.00
29385;BME280;16367;48.736;9.218;2023-05-23T02:19:19;-23685.69;;;16.41;100.00
29385;BME280;16367;48.736;9.218;2023-05-23T02:21:22;-23686.16;;;16.42;100.00
29385;BME280;16367;48.736;9.218;2023-05-23T02:23:25;-23682.22;;;16.30;100.00
29385;BME280;16367;48.736;9.218;2023-05-23T02:25:28;-23680.66;;;16.25;100.00
29385;BME280;16367;48.736;9.218;2023-05-23T02:27:30;-23684.59;;;16.37;100.00
29385;BME280;16367;48.736;9.218;2023-05-23T02:29:33;-23682.38;;;16.30;100.00
29385;BME280;16367;48.736;9.218;2023-05-23T02:31:36;-23682.53;;;16.31;100.00
29385;BME280;16367;48.736;9.218;2023-05-23T02:33:40;-23679.69;;;16.22;100.00
29385;BME280;16367;48.736;9.218;2023-05-23T02:35:43;-23674.97;;;16.07;100.00
29385;BME280;16367;48.736;9.218;2023-05-23T02:37:46;-23674.66;;;16.06;100.00
29385;BME280;16367;48.736;9.218;2023-05-23T02:39:49;-20201.31;;;15.98;100.00
29385;BME280;16367;48.736;9.218;2023-05-23T02:41:51;-22732.72;;;16.04;100.00
29385;BME280;16367;48.736;9.218;2023-05-23T02:43:54;-23672.13;;;15.98;100.00
29385;BME280;16367;48.736;9.218;2023-05-23T02:45:57;-23674.81;;;16.06;100.00
29385;BME280;16367;48.736;9.218;2023-05-23T02:48:00;-23673.88;;;16.03;100.00
29385;BME280;16367;48.736;9.218;2023-05-23T02:50:05;-23672.44;;;15.99;100.00
29385;BME280;16367;48.736;9.218;2023-05-23T02:52:08;-23673.41;;;16.02;100.00
29385;BME280;16367;48.736;9.218;2023-05-23T02:54:11;-23675.13;;;16.07;100.00
29385;BME280;16367;48.736;9.218;2023-05-23T02:56:14;-21650.47;;;16.02;100.00
29385;BME280;16367;48.736;9.218;2023-05-23T02:58:16;-23677.34;;;16.14;100.00
29385;BME280;16367;48.736;9.218;2023-05-23T03:00:19;-23677.19;;;16.14;100.00
29385;BME280;16367;48.736;9.218;2023-05-23T03:02:22;-23674.97;;;16.07;100.00
29385;BME280;16367;48.736;9.218;2023-05-23T03:04:24;-23680.31;;;16.24;100.00
29385;BME280;16367;48.736;9.218;2023-05-23T03:06:29;-23680.00;;;16.23;100.00
29385;BME280;16367;48.736;9.218;2023-05-23T03:08:32;-23677.81;;;16.16;100.00
29385;BME280;16367;48.736;9.218;2023-05-23T03:10:35;-23681.44;;;16.27;100.00
29385;BME280;16367;48.736;9.218;2023-05-23T03:12:38;-23680.00;;;16.23;100.00
29385;BME280;16367;48.736;9.218;2023-05-23T03:14:41;-23677.50;;;16.15;100.00
29385;BME280;16367;48.736;9.218;2023-05-23T03:16:43;-23682.22;;;16.30;100.00
29385;BME280;16367;48.736;9.218;2023-05-23T03:18:47;-23683.94;;;16.35;100.00
29385;BME280;16367;48.736;9.218;2023-05-23T03:20:50;-23680.66;;;16.25;100.00
29385;BME280;16367;48.736;9.218;2023-05-23T03:22:54;-23682.53;;;16.31;100.00
29385;BME280;16367;48.736;9.218;2023-05-23T03:24:57;-23678.44;;;16.18;100.00
29385;BME280;16367;48.736;9.218;2023-05-23T03:26:59;-23683.31;;;16.33;100.00
29385;BME280;16367;48.736;9.218;2023-05-23T03:29:03;-23682.69;;;16.31;100.00
29385;BME280;16367;48.736;9.218;2023-05-23T03:31:06;-23687.25;;;16.46;100.00
29385;BME280;16367;48.736;9.218;2023-05-23T03:33:09;-23688.22;;;16.49;100.00
29385;BME280;16367;48.736;9.218;2023-05-23T03:35:12;-23683.94;;;16.35;100.00
29385;BME280;16367;48.736;9.218;2023-05-23T03:37:15;-23684.13;;;16.36;100.00
29385;BME280;16367;48.736;9.218;2023-05-23T03:39:19;-23686.31;;;16.43;100.00
29385;BME280;16367;48.736;9.218;2023-05-23T03:41:23;-23688.84;;;16.51;100.00
29385;BME280;16367;48.736;9.218;2023-05-23T03:43:26;-23686.63;;;16.44;100.00
29385;BME280;16367;48.736;9.218;2023-05-23T03:45:29;-23684.75;;;16.38;100.00
29385;BME280;16367;48.736;9.218;2023-05-23T03:47:32;-23681.75;;;16.28;100.00
29385;BME280;16367;48.736;9.218;2023-05-23T03:49:34;-23683.16;;;16.33;100.00
29385;BME280;16367;48.736;9.218;2023-05-23T03:51:37;-23685.06;;;16.39;100.00
29385;BME280;16367;48.736;9.218;2023-05-23T03:53:40;-23682.69;;;16.31;100.00
29385;BME280;16367;48.736;9.218;2023-05-23T03:55:44;-23680.31;;;16.24;100.00
29385;BME280;16367;48.736;9.218;2023-05-23T03:57:47;-23683.16;;;16.33;100.00
29385;BME280;16367;48.736;9.218;2023-05-23T03:59:49;-23680.66;;;16.25;100.00
29385;BME280;16367;48.736;9.218;2023-05-23T04:01:52;-23686.00;;;16.42;100.00
29385;BME280;16367;48.736;9.218;2023-05-23T04:03:55;-23690.25;;;16.56;100.00
29385;BME280;16367;48.736;9.218;2023-05-23T04:05:58;-23681.75;;;16.28;100.00
29385;BME280;16367;48.736;9.218;2023-05-23T04:08:02;-23681.28;;;16.27;100.00
29385;BME280;16367;48.736;9.218;2023-05-23T04:10:05;-23686.16;;;16.42;100.00
29385;BME280;16367;48.736;9.218;2023-05-23T04:12:10;-23687.56;;;16.47;100.00
29385;BME280;16367;48.736;9.218;2023-05-23T04:14:13;-23686.00;;;16.42;100.00
29385;BME280;16367;48.736;9.218;2023-05-23T04:16:15;-23686.31;;;16.43;100.00
29385;BME280;16367;48.736;9.218;2023-05-23T04:18:18;-23689.00;;;16.52;100.00
29385;BME280;16367;48.736;9.218;2023-05-23T04:20:21;-23688.53;;;16.50;100.00
29385;BME280;16367;48.736;9.218;2023-05-23T04:22:24;-23690.41;;;16.56;100.00
29385;BME280;16367;48.736;9.218;2023-05-23T04:24:26;-23682.22;;;16.30;100.00
29385;BME280;16367;48.736;9.218;2023-05-23T04:26:29;-23684.13;;;16.36;100.00
29385;BME280;16367;48.736;9.218;2023-05-23T04:28:33;-23692.94;;;16.64;100.00
29385;BME280;16367;48.736;9.218;2023-05-23T04:30:36;-23691.69;;;16.60;100.00
29385;BME280;16367;48.736;9.218;2023-05-23T04:32:39;-23689.00;;;16.52;100.00
29385;BME280;16367;48.736;9.218;2023-05-23T04:34:41;-23687.56;;;16.47;100.00
29385;BME280;16367;48.736;9.218;2023-05-23T04:36:44;-23685.84;;;16.41;100.00
29385;BME280;16367;48.736;9.218;2023-05-23T04:38:47;-23690.25;;;16.56;100.00
29385;BME280;16367;48.736;9.218;2023-05-23T04:40:50;-23685.69;;;16.41;100.00
29385;BME280;16367;48.736;9.218;2023-05-23T04:42:53;-23687.25;;;16.46;100.00
29385;BME280;16367;48.736;9.218;2023-05-23T04:44:58;-23690.09;;;16.55;100.00
29385;BME280;16367;48.736;9.218;2023-05-23T04:47:04;-23689.47;;;16.53;100.00
29385;BME280;16367;48.736;9.218;2023-05-23T04:49:20;-23686.31;;;16.43;100.00
29385;BME280;16367;48.736;9.218;2023-05-23T04:51:23;-23688.69;;;16.51;100.00
29385;BME280;16367;48.736;9.218;2023-05-23T04:53:26;-23689.47;;;16.53;100.00
29385;BME280;16367;48.736;9.218;2023-05-23T04:55:28;-23689.00;;;16.52;100.00
29385;BME280;16367;48.736;9.218;2023-05-23T04:57:32;-23693.25;;;16.65;100.00
29385;BME280;16367;48.736;9.218;2023-05-23T04:59:35;-23690.09;;;16.55;100.00
29385;BME280;16367;48.736;9.218;2023-05-23T05:01:40;-23690.72;;;16.57;100.00
29385;BME280;16367;48.736;9.218;2023-05-23T05:03:42;-23692.31;;;16.62;100.00
29385;BME280;16367;48.736;9.218;2023-05-23T05:05:45;-23682.84;;;16.32;100.00
29385;BME280;16367;48.736;9.218;2023-05-23T05:07:48;-23689.47;;;16.53;100.00
29385;BME280;16367;48.736;9.218;2023-05-23T05:09:51;-23691.06;;;16.58;100.00
29385;BME280;16367;48.736;9.218;2023-05-23T05:11:54;-23689.16;;;16.52;100.00
29385;BME280;16367;48.736;9.218;2023-05-23T05:13:56;-23687.56;;;16.47;100.00
29385;BME280;16367;48.736;9.218;2023-05-23T05:15:59;-23691.34;;;16.59;100.00
29385;BME280;16367;48.736;9.218;2023-05-23T05:18:03;-23687.88;;;16.48;100.00
29385;BME280;16367;48.736;9.218;2023-05-23T05:20:07;-23682.84;;;16.32;100.00
29385;BME280;16367;48.736;9.218;2023-05-23T05:22:11;-23690.09;;;16.55;100.00
29385;BME280;16367;48.736;9.218;2023-05-23T05:24:14;-23688.69;;;16.51;100.00
29385;BME280;16367;48.736;9.218;2023-05-23T05:26:17;-23695.78;;;16.73;100.00
29385;BME280;16367;48.736;9.218;2023-05-23T05:28:19;-23697.97;;;16.80;100.00
29385;BME280;16367;48.736;9.218;2023-05-23T05:30:22;-23703.00;;;16.96;100.00
29385;BME280;16367;48.736;9.218;2023-05-23T05:32:25;-23698.91;;;16.83;100.00
29385;BME280;16367;48.736;9.218;2023-05-23T05:34:30;-23693.72;;;16.67;100.00
29385;BME280;16367;48.736;9.218;2023-05-23T05:36:34;-23691.34;;;16.59;100.00
29385;BME280;16367;48.736;9.218;2023-05-23T05:38:37;-23698.59;;;16.82;100.00
29385;BME280;16367;48.736;9.218;2023-05-23T05:40:39;-23694.03;;;16.68;100.00
29385;BME280;16367;48.736;9.218;2023-05-23T05:42:43;-23698.59;;;16.82;100.00
29385;BME280;16367;48.736;9.218;2023-05-23T05:44:46;-23699.25;;;16.84;100.00
29385;BME280;16367;48.736;9.218;2023-05-23T05:46:49;-23697.81;;;16.80;100.00
29385;BME280;16367;48.736;9.218;2023-05-23T05:48:52;-23691.19;;;16.59;100.00
29385;BME280;16367;48.736;9.218;2023-05-23T05:50:56;-23693.56;;;16.66;100.00
29385;BME280;16367;48.736;9.218;2023-05-23T05:53:01;-23694.19;;;16.68;100.00
29385;BME280;16367;48.736;9.218;2023-05-23T05:55:05;-23695.63;;;16.73;100.00
29385;BME280;16367;48.736;9.218;2023-05-23T05:57:08;-23700.34;;;16.88;100.00
29385;BME280;16367;48.736;9.218;2023-05-23T05:59:11;-23699.06;;;16.84;100.00
29385;BME280;16367;48.736;9.218;2023-05-23T06:01:13;-23703.63;;;16.98;100.00
29385;BME280;16367;48.736;9.218;2023-05-23T06:03:16;-23703.34;;;16.97;100.00
29385;BME280;16367;48.736;9.218;2023-05-23T06:05:19;-23704.28;;;17.00;100.00
29385;BME280;16367;48.736;9.218;2023-05-23T06:07:23;-23703.00;;;16.96;100.00
29385;BME280;16367;48.736;9.218;2023-05-23T06:09:26;-23702.06;;;16.93;100.00
29385;BME280;16367;48.736;9.218;2023-05-23T06:11:29;-23697.97;;;16.80;100.00
29385;BME280;16367;48.736;9.218;2023-05-23T06:13:32;-23703.97;;;16.99;100.00
29385;BME280;16367;48.736;9.218;2023-05-23T06:15:35;-23702.69;;;16.95;100.00
29385;BME280;16367;48.736;9.218;2023-05-23T06:17:38;-23703.97;;;16.99;100.00
29385;BME280;16367;48.736;9.218;2023-05-23T06:19:41;-23698.13;;;16.81;100.00
29385;BME280;16367;48.736;9.218;2023-05-23T06:21:44;-23704.59;;;17.01;100.00
29385;BME280;16367;48.736;9.218;2023-05-23T06:23:48;-23704.13;;;17.00;100.00
29385;BME280;16367;48.736;9.218;2023-05-23T06:25:50;-23708.38;;;17.13;100.00
29385;BME280;16367;48.736;9.218;2023-05-23T06:27:53;-23711.19;;;17.23;100.00
29385;BME280;16367;48.736;9.218;2023-05-23T06:29:56;-23707.72;;;17.11;100.00
29385;BME280;16367;48.736;9.218;2023-05-23T06:31:59;-23702.69;;;16.95;100.00
29385;BME280;16367;48.736;9.218;2023-05-23T06:34:02;-23701.13;;;16.90;100.00
29385;BME280;16367;48.736;9.218;2023-05-23T06:36:04;-23712.31;;;17.26;100.00
29385;BME280;16367;48.736;9.218;2023-05-23T06:38:07;-23713.09;;;17.29;100.00
29385;BME280;16367;48.736;9.218;2023-05-23T06:40:12;-23703.34;;;16.97;100.00
29385;BME280;16367;48.736;9.218;2023-05-23T06:42:15;-23705.84;;;17.05;100.00
29385;BME280;16367;48.736;9.218;2023-05-23T06:44:17;-23708.38;;;17.13;100.00
29385;BME280;16367;48.736;9.218;2023-05-23T06:46:20;-23711.19;;;17.23;100.00
29385;BME280;16367;48.736;9.218;2023-05-23T06:48:23;-23708.06;;;17.12;100.00
29385;BME280;16367;48.736;9.218;2023-05-23T06:50:26;-23706.78;;;17.08;100.00
29385;BME280;16367;48.736;9.218;2023-05-23T06:52:28;-23712.16;;;17.26;100.00
29385;BME280;16367;48.736;9.218;2023-05-23T06:54:31;-23713.41;;;17.30;100.00
29385;BME280;16367;48.736;9.218;2023-05-23T06:56:35;-23721.75;;;17.56;100.00
29385;BME280;16367;48.736;9.218;2023-05-23T06:58:38;-23705.84;;;17.05;100.00
29385;BME280;16367;48.736;9.218;2023-05-23T07:00:41;-23709.00;;;17.15;100.00
29385;BME280;16367;48.736;9.218;2023-05-23T07:02:44;-23703.34;;;16.97;100.00
29385;BME280;16367;48.736;9.218;2023-05-23T07:04:49;-23700.81;;;16.89;100.00
29385;BME280;16367;48.736;9.218;2023-05-23T07:06:52;-23701.59;;;16.92;100.00
29385;BME280;16367;48.736;9.218;2023-05-23T07:08:55;-23697.66;;;16.79;100.00
29385;BME280;16367;48.736;9.218;2023-05-23T07:10:57;-23698.59;;;16.82;100.00
29385;BME280;16367;48.736;9.218;2023-05-23T07:13:02;-23693.88;;;16.67;100.00
29385;BME280;16367;48.736;9.218;2023-05-23T07:15:05;-23695.16;;;16.71;100.00
29385;BME280;16367;48.736;9.218;2023-05-23T07:17:08;-23699.56;;;16.85;100.00
29385;BME280;16367;48.736;9.218;2023-05-23T07:19:11;-23692.78;;;16.64;100.00
29385;BME280;16367;48.736;9.218;2023-05-23T07:21:14;-23703.97;;;16.99;100.00
29385;BME280;16367;48.736;9.218;2023-05-23T07:23:17;-23692.31;;;16.62;100.00
29385;BME280;16367;48.736;9.218;2023-05-23T07:25:20;-23695.44;;;16.72;100.00
29385;BME280;16367;48.736;9.218;2023-05-23T07:27:25;-23687.56;;;16.47;100.00
29385;BME280;16367;48.736;9.218;2023-05-23T07:29:29;-23685.22;;;16.39;100.00
29385;BME280;16367;48.736;9.218;2023-05-23T07:31:32;-23680.00;;;16.23;100.00
29385;BME280;16367;48.736;9.218;2023-05-23T07:33:35;-23686.31;;;16.43;100.00
29385;BME280;16367;48.736;9.218;2023-05-23T07:35:38;-23680.31;;;16.24;100.00
29385;BME280;16367;48.736;9.218;2023-05-23T07:37:40;-23690.41;;;16.56;100.00
29385;BME280;16367;48.736;9.218;2023-05-23T07:39:43;-23674.03;;;16.04;100.00
29385;BME280;16367;48.736;9.218;2023-05-23T07:41:46;-23681.75;;;16.28;100.00
29385;BME280;16367;48.736;9.218;2023-05-23T07:43:49;-23692.63;;;16.63;100.00
29385;BME280;16367;48.736;9.218;2023-05-23T07:45:53;-23689.16;;;16.52;100.00
29385;BME280;16367;48.736;9.218;2023-05-23T07:47:56;-23696.41;;;16.75;100.00
29385;BME280;16367;48.736;9.218;2023-05-23T07:49:59;-23680.78;;;16.25;100.00
29385;BME280;16367;48.736;9.218;2023-05-23T07:52:03;-23681.59;;;16.28;100.00
29385;BME280;16367;48.736;9.218;2023-05-23T07:54:07;-23683.78;;;16.35;100.00
29385;BME280;16367;48.736;9.218;2023-05-23T07:56:10;-23693.25;;;16.65;100.00
29385;BME280;16367;48.736;9.218;2023-05-23T07:58:12;-23683.63;;;16.34;100.00
29385;BME280;16367;48.736;9.218;2023-05-23T08:00:16;-23683.63;;;16.34;100.00
29385;BME280;16367;48.736;9.218;2023-05-23T08:02:20;-23688.53;;;16.50;100.00
29385;BME280;16367;48.736;9.218;2023-05-23T08:04:23;-23682.84;;;16.32;100.00
29385;BME280;16367;48.736;9.218;2023-05-23T08:06:26;-23684.75;;;16.38;100.00
29385;BME280;16367;48.736;9.218;2023-05-23T08:08:28;-23675.59;;;16.09;100.00
29385;BME280;16367;48.736;9.218;2023-05-23T08:10:32;-23671.66;;;15.96;100.00
29385;BME280;16367;48.736;9.218;2023-05-23T08:12:34;-23679.69;;;16.22;100.00
29385;BME280;16367;48.736;9.218;2023-05-23T08:14:37;-23685.06;;;16.39;100.00
29385;BME280;16367;48.736;9.218;2023-05-23T08:16:52;-23685.38;;;16.40;100.00
29385;BME280;16367;48.736;9.218;2023-05-23T08:18:56;-23678.75;;;16.19;100.00
29385;BME280;16367;48.736;9.218;2023-05-23T08:20:59;-23682.22;;;16.30;100.00
29385;BME280;16367;48.736;9.218;2023-05-23T08:23:03;-23694.19;;;16.68;100.00
29385;BME280;16367;48.736;9.218;2023-05-23T08:25:06;-23678.59;;;16.18;100.00
29385;BME280;16367;48.736;9.218;2023-05-23T08:27:09;-23677.19;;;16.14;100.00
29385;BME280;16367;48.736;9.218;2023-05-23T08:29:12;-23674.97;;;16.07;100.00
29385;BME280;16367;48.736;9.218;2023-05-23T08:31:15;-23672.75;;;16.00;100.00
29385;BME280;16367;48.736;9.218;2023-05-23T08:33:17;-23671.50;;;15.96;100.00
29385;BME280;16367;48.736;9.218;2023-05-23T08:35:22;-23671.50;;;15.96;100.00
29385;BME280;16367;48.736;9.218;2023-05-23T08:37:24;-23666.63;;;15.80;100.00
29385;BME280;16367;48.736;9.218;2023-05-23T08:39:27;-23661.09;;;15.62;100.00
29385;BME280;16367;48.736;9.218;2023-05-23T08:41:30;-23661.88;;;15.65;100.00
29385;BME280;16367;48.736;9.218;2023-05-23T08:43:33;-23667.88;;;15.84;100.00
29385;BME280;16367;48.736;9.218;2023-05-23T08:45:35;-23663.63;;;15.71;100.00
29385;BME280;16367;48.736;9.218;2023-05-23T08:47:41;-23667.72;;;15.84;100.00
29385;BME280;16367;48.736;9.218;2023-05-23T08:49:44;-23676.22;;;16.11;100.00
29385;BME280;16367;48.736;9.218;2023-05-23T08:51:51;-23670.56;;;15.93;100.00
29385;BME280;16367;48.736;9.218;2023-05-23T08:53:53;-23664.09;;;15.72;100.00
29385;BME280;16367;48.736;9.218;2023-05-23T08:55:57;-23679.22;;;16.20;100.00
29385;BME280;16367;48.736;9.218;2023-05-23T08:58:03;-23678.28;;;16.17;100.00
29385;BME280;16367;48.736;9.218;2023-05-23T09:00:07;-23681.59;;;16.28;100.00
29385;BME280;16367;48.736;9.218;2023-05-23T09:02:15;-23686.00;;;16.42;100.00
29385;BME280;16367;48.736;9.218;2023-05-23T09:04:18;-23681.28;;;16.27;100.00
29385;BME280;16367;48.736;9.218;2023-05-23T09:06:21;-23674.97;;;16.07;100.00
29385;BME280;16367;48.736;9.218;2023-05-23T09:08:25;-23678.91;;;16.19;100.00
29385;BME280;16367;48.736;9.218;2023-05-23T09:10:28;-23682.22;;;16.30;100.00
29385;BME280;16367;48.736;9.218;2023-05-23T09:12:31;-23685.06;;;16.39;100.00
29385;BME280;16367;48.736;9.218;2023-05-23T09:14:34;-23672.44;;;15.99;100.00
29385;BME280;16367;48.736;9.218;2023-05-23T09:16:37;-23679.38;;;16.21;100.00
29385;BME280;16367;48.736;9.218;2023-05-23T09:18:42;-23683.00;;;16.32;100.00
29385;BME280;16367;48.736;9.218;2023-05-23T09:20:45;-23678.75;;;16.19;100.00
29385;BME280;16367;48.736;9.218;2023-05-23T09:22:48;-23679.69;;;16.22;100.00
29385;BME280;16367;48.736;9.218;2023-05-23T09:24:52;-23689.78;;;16.54;100.00
29385;BME280;16367;48.736;9.218;2023-05-23T09:26:55;-23690.56;;;16.57;100.00
29385;BME280;16367;48.736;9.218;2023-05-23T09:28:59;-23685.69;;;16.41;100.00
29385;BME280;16367;48.736;9.218;2023-05-23T09:31:03;-23698.91;;;16.83;100.00
29385;BME280;16367;48.736;9.218;2023-05-23T09:33:07;-23700.97;;;16.90;100.00
29385;BME280;16367;48.736;9.218;2023-05-23T09:35:10;-23697.03;;;16.77;100.00
29385;BME280;16367;48.736;9.218;2023-05-23T09:37:15;-23697.81;;;16.80;100.00
29385;BME280;16367;48.736;9.218;2023-05-23T09:39:19;-23708.06;;;17.12;100.00
29385;BME280;16367;48.736;9.218;2023-05-23T09:41:23;-23704.59;;;17.01;100.00
29385;BME280;16367;48.736;9.218;2023-05-23T09:43:27;-23707.91;;;17.12;98.54
29385;BME280;16367;48.736;9.218;2023-05-23T09:45:31;-23689.78;;;16.54;100.00
29385;BME280;16367;48.736;9.218;2023-05-23T09:47:33;-23700.19;;;16.87;100.00
29385;BME280;16367;48.736;9.218;2023-05-23T09:49:38;-23691.19;;;16.59;100.00
29385;BME280;16367;48.736;9.218;2023-05-23T09:51:41;-23715.59;;;17.37;98.54
29385;BME280;16367;48.736;9.218;2023-05-23T09:53:44;-23705.84;;;17.05;99.76
29385;BME280;16367;48.736;9.218;2023-05-23T09:55:48;-23714.03;;;17.32;98.28
29385;BME280;16367;48.736;9.218;2023-05-23T09:57:54;-23715.13;;;17.35;97.97
29385;BME280;16367;48.736;9.218;2023-05-23T09:59:58;-23724.44;;;17.65;93.91
29385;BME280;16367;48.736;9.218;2023-05-23T10:02:05;-23714.66;;;17.34;94.05
29385;BME280;16367;48.736;9.218;2023-05-23T10:04:09;-23718.13;;;17.45;94.94
29385;BME280;16367;48.736;9.218;2023-05-23T10:06:16;-23745.97;;;18.34;91.30
29385;BME280;16367;48.736;9.218;2023-05-23T10:08:26;-23728.97;;;17.79;93.98
29385;BME280;16367;48.736;9.218;2023-05-23T10:10:32;-23730.09;;;17.83;93.11
29385;BME280;16367;48.736;9.218;2023-05-23T10:12:43;-23717.34;;;17.42;95.52
29385;BME280;16367;48.736;9.218;2023-05-23T10:14:53;-23724.44;;;17.65;94.45
29385;BME280;16367;48.736;9.218;2023-05-23T10:17:02;-23729.13;;;17.80;92.41
29385;BME280;16367;48.736;9.218;2023-05-23T10:19:14;-23746.75;;;18.36;91.01
29385;BME280;16367;48.736;9.218;2023-05-23T10:21:30;-23727.56;;;17.75;90.43
29385;BME280;16367;48.736;9.218;2023-05-23T10:23:34;-23738.91;;;18.11;88.15
29385;BME280;16367;48.736;9.218;2023-05-23T10:25:38;-23758.38;;;18.74;86.31
29385;BME280;16367;48.736;9.218;2023-05-23T10:27:43;-23756.81;;;18.69;84.87
29385;BME280;16367;48.736;9.218;2023-05-23T10:29:46;-23762.47;;;18.87;85.90
29385;BME280;16367;48.736;9.218;2023-05-23T10:31:51;-23791.06;;;19.78;81.33
29385;BME280;16367;48.736;9.218;2023-05-23T10:33:59;-23784.47;;;19.57;80.53
29385;BME280;16367;48.736;9.218;2023-05-23T10:36:08;-23803.00;;;20.17;78.08
29385;BME280;16367;48.736;9.218;2023-05-23T10:38:27;-23800.47;;;20.08;77.31
29385;BME280;16367;48.736;9.218;2023-05-23T10:40:38;-23765.47;;;18.96;81.00
29385;BME280;16367;48.736;9.218;2023-05-23T10:42:50;-23757.44;;;18.71;83.13